Time;durP1;ratioP1;P1;durP2;ratioP2;P2;SDS_P1;SDS_P2;PMS_P1;PMS_P2;Temp;Humidity;BMP_temperature;BMP_pressure;BME280_temperature;BME280_humidity;BME280_pressure;Samples;Min_cycle;Max_cycle;Signal;HPM_P1;HPM_P2
2021/11/05 00:00:12;;;;;;;;;;;;;;;8.25;61.23;97874.20;1785031;79;26021;-84
2021/11/05 00:02:40;;;;;;;;;;;;;;;8.24;61.24;97876.44;1784886;79;20211;-86
2021/11/05 00:05:06;;;;;;;;;;;;;;;8.25;61.27;97877.65;1749346;80;20167;-86
2021/11/05 00:07:32;;;;;;;;;;;;;;;8.27;61.29;97878.39;1776425;79;24900;-86
2021/11/05 00:09:58;;;;;;;;;;;;;;;8.30;61.31;97883.88;1781687;79;21988;-86
2021/11/05 00:12:24;;;;;;;;;;;;;;;8.28;61.32;97887.88;1788246;79;21080;-89
2021/11/05 00:14:50;;;;;;;;;;;;;;;8.28;61.34;97889.65;1769998;79;24446;-86
2021/11/05 00:17:16;;;;;;;;;;;;;;;8.28;61.37;97897.47;1766061;79;20181;-86
2021/11/05 00:19:42;;;;;;;;;;;;;;;8.28;61.36;97904.83;1776878;79;24797;-86
2021/11/05 00:22:08;;;;;;;;;;;;;;;8.28;61.35;97903.98;1785097;79;20819;-86
2021/11/05 00:24:34;;;;;;;;;;;;;;;8.27;61.35;97900.55;1773879;79;25924;-85
2021/11/05 00:27:04;;;;;;;;;;;;;;;8.28;61.35;97905.30;1784291;79;25213;-85
2021/11/05 00:29:30;;;;;;;;;;;;;;;8.29;61.36;97913.48;1750888;80;20267;-84
2021/11/05 00:31:56;;;;;;;;;;;;;;;8.29;61.34;97916.09;1783487;79;20216;-89
2021/11/05 00:34:22;;;;;;;;;;;;;;;8.27;61.33;97923.17;1784414;79;20228;-86
2021/11/05 00:36:48;;;;;;;;;;;;;;;8.25;61.33;97925.88;1778018;79;21148;-86
2021/11/05 00:39:33;;;;;;;;;;;;;;;8.24;61.33;97922.89;1765620;79;20609;-85
2021/11/05 00:42:01;;;;;;;;;;;;;;;8.22;61.31;97923.49;1770252;79;20263;-85
2021/11/05 00:44:27;;;;;;;;;;;;;;;8.19;61.35;97926.29;1782509;79;25627;-85
2021/11/05 00:46:53;;;;;;;;;;;;;;;8.17;61.34;97926.05;1774121;79;22207;-86
2021/11/05 00:49:19;;;;;;;;;;;;;;;8.16;61.36;97925.20;1784078;79;25998;-86
2021/11/05 00:51:45;;;;;;;;;;;;;;;8.13;61.38;97920.69;1766004;79;24387;-85
2021/11/05 00:54:11;;;;;;;;;;;;;;;8.11;61.40;97931.67;1766732;79;20233;-86
2021/11/05 00:56:38;;;;;;;;;;;;;;;8.06;61.40;97925.47;1767344;79;24749;-84
2021/11/05 00:59:04;;;;;;;;;;;;;;;8.04;61.44;97929.11;1766706;79;21909;-85
2021/11/05 01:01:30;;;;;;;;;;;;;;;8.00;61.47;97925.88;1783753;79;25938;-88
2021/11/05 01:03:56;;;;;;;;;;;;;;;7.97;61.48;97923.47;1745281;80;24677;-88
2021/11/05 01:06:22;;;;;;;;;;;;;;;7.95;61.50;97921.45;1765383;79;20204;-87
2021/11/05 01:08:49;;;;;;;;;;;;;;;7.89;61.55;97926.61;1784887;79;24957;-85
2021/11/05 01:11:16;;;;;;;;;;;;;;;7.85;61.56;97926.92;1778854;79;22557;-85
2021/11/05 01:13:42;;;;;;;;;;;;;;;7.82;61.61;97926.64;1777092;79;26059;-87
2021/11/05 01:16:08;;;;;;;;;;;;;;;7.77;61.63;97916.16;1743947;80;24606;-87
2021/11/05 01:18:34;;;;;;;;;;;;;;;7.75;61.66;97907.14;1762350;79;20290;-87
2021/11/05 01:21:01;;;;;;;;;;;;;;;7.71;61.68;97905.69;1754424;80;20785;-87
2021/11/05 01:23:27;;;;;;;;;;;;;;;7.69;61.75;97921.06;1776582;79;21974;-87
2021/11/05 01:25:53;;;;;;;;;;;;;;;7.66;61.78;97919.48;1744468;80;25956;-85
2021/11/05 01:28:20;;;;;;;;;;;;;;;7.63;61.85;97914.49;1772211;79;24531;-85
2021/11/05 01:30:46;;;;;;;;;;;;;;;7.58;61.87;97913.47;1770950;79;20269;-88
2021/11/05 01:33:12;;;;;;;;;;;;;;;7.58;61.93;97915.27;1751190;80;24715;-85
2021/11/05 01:35:39;;;;;;;;;;;;;;;7.56;61.99;97906.71;1750495;80;21913;-85
2021/11/05 01:38:09;;;;;;;;;;;;;;;7.54;62.04;97911.17;1796231;78;25943;-86
2021/11/05 01:40:37;;;;;;;;;;;;;;;7.52;62.08;97903.95;1777970;79;24391;-86
2021/11/05 01:43:10;;;;;;;;;;;;;;;7.53;62.13;97910.34;1780324;79;20462;-86
2021/11/05 01:45:36;;;;;;;;;;;;;;;7.51;62.17;97918.73;1775550;79;24855;-85
2021/11/05 01:48:02;;;;;;;;;;;;;;;7.51;62.21;97920.03;1744086;81;22006;-84
2021/11/05 01:50:29;;;;;;;;;;;;;;;7.47;62.26;97912.53;1777133;79;25973;-87
2021/11/05 01:52:55;;;;;;;;;;;;;;;7.45;62.30;97915.23;1772301;79;24446;-85
2021/11/05 01:55:22;;;;;;;;;;;;;;;7.46;62.35;97921.27;1740029;80;20537;-84
2021/11/05 01:57:48;;;;;;;;;;;;;;;7.44;62.39;97917.46;1773920;79;24971;-87
2021/11/05 02:00:16;;;;;;;;;;;;;;;7.43;62.42;97920.99;1777406;79;22056;-87
2021/11/05 02:02:45;;;;;;;;;;;;;;;7.44;62.47;97933.08;1756132;80;22097;-87
2021/11/05 02:05:12;;;;;;;;;;;;;;;7.45;62.51;97937.36;1736386;81;24436;-89
2021/11/05 02:07:38;;;;;;;;;;;;;;;7.47;62.55;97942.47;1777106;79;20510;-88
2021/11/05 02:10:05;;;;;;;;;;;;;;;7.46;62.61;97940.80;1774806;79;24815;-88
2021/11/05 02:12:32;;;;;;;;;;;;;;;7.45;62.63;97942.56;1746286;80;22129;-88
2021/11/05 02:14:59;;;;;;;;;;;;;;;7.44;62.67;97942.19;1784414;79;26619;-88
2021/11/05 02:17:25;;;;;;;;;;;;;;;7.46;62.68;97948.14;1776012;79;24493;-86
2021/11/05 02:19:52;;;;;;;;;;;;;;;7.47;62.71;97948.48;1749028;80;20898;-86
2021/11/05 02:22:19;;;;;;;;;;;;;;;7.47;62.72;97950.28;1785178;79;24752;-86
2021/11/05 02:24:45;;;;;;;;;;;;;;;7.48;62.76;97947.55;1781317;79;22049;-86
2021/11/05 02:27:14;;;;;;;;;;;;;;;7.49;62.78;97954.91;1769742;79;26007;-86
2021/11/05 02:29:41;;;;;;;;;;;;;;;7.51;62.80;97958.25;1778061;79;24608;-86
2021/11/05 02:32:08;;;;;;;;;;;;;;;7.52;62.84;97958.63;1769657;79;20176;-87
2021/11/05 02:37:23;;;;;;;;;;;;;;;7.49;62.88;97960.95;1775320;79;22135;-88
2021/11/05 02:39:49;;;;;;;;;;;;;;;7.48;62.89;97961.03;1777979;79;26600;-86
2021/11/05 02:42:15;;;;;;;;;;;;;;;7.45;62.92;97955.58;1738409;81;24600;-85
2021/11/05 02:44:42;;;;;;;;;;;;;;;7.46;62.92;97969.44;1720307;83;20216;-89
2021/11/05 02:47:22;;;;;;;;;;;;;;;7.45;62.89;97970.36;1720364;83;25010;-89
2021/11/05 02:49:49;;;;;;;;;;;;;;;7.44;62.94;97969.98;1719924;83;22073;-88
2021/11/05 02:52:15;;;;;;;;;;;;;;;7.44;62.96;97979.09;1720309;83;25907;-85
2021/11/05 02:54:42;;;;;;;;;;;;;;;7.39;62.93;97975.50;1720315;83;25009;-85
2021/11/05 02:57:14;;;;;;;;;;;;;;;7.38;62.95;97972.98;1738501;81;20180;-88
2021/11/05 02:59:41;;;;;;;;;;;;;;;7.36;62.96;97985.28;1736931;82;24725;-86
2021/11/05 03:02:07;;;;;;;;;;;;;;;7.32;62.96;97983.32;1738543;81;22033;-88
2021/11/05 03:04:34;;;;;;;;;;;;;;;7.31;62.97;97977.73;1736604;81;25984;-86
2021/11/05 03:07:02;;;;;;;;;;;;;;;7.30;62.99;97983.06;1733721;81;24282;-88
2021/11/05 03:09:33;;;;;;;;;;;;;;;7.28;63.00;97984.45;1703873;82;20511;-87
2021/11/05 03:12:00;;;;;;;;;;;;;;;7.27;63.01;97993.66;1705480;82;24226;-85
2021/11/05 03:14:27;;;;;;;;;;;;;;;7.28;63.03;97992.73;1724990;82;22134;-85
2021/11/05 03:16:54;;;;;;;;;;;;;;;7.26;63.06;97996.72;1738593;82;25955;-88
2021/11/05 03:19:22;;;;;;;;;;;;;;;7.23;63.07;97993.02;1685379;83;20210;-88
2021/11/05 03:21:50;;;;;;;;;;;;;;;7.24;63.08;98001.67;1736494;81;20271;-85
2021/11/05 03:24:16;;;;;;;;;;;;;;;7.24;63.12;98004.27;1720312;83;24810;-86
2021/11/05 03:26:44;;;;;;;;;;;;;;;7.23;63.14;98006.04;1720505;83;21891;-86
2021/11/05 03:29:10;;;;;;;;;;;;;;;7.23;63.14;98007.80;1720269;83;26733;-87
2021/11/05 03:31:40;;;;;;;;;;;;;;;7.23;63.16;98016.45;1738342;81;25277;-88
2021/11/05 03:34:06;;;;;;;;;;;;;;;7.23;63.18;98021.66;1702749;82;20225;-88
2021/11/05 03:36:32;;;;;;;;;;;;;;;7.21;63.21;98020.91;1721213;82;24879;-87
2021/11/05 03:38:59;;;;;;;;;;;;;;;7.22;63.21;98030.38;1685187;83;21875;-84
2021/11/05 03:41:26;;;;;;;;;;;;;;;7.20;63.23;98036.14;1749231;80;27051;-84
2021/11/05 03:43:52;;;;;;;;;;;;;;;7.15;63.23;98035.13;1749197;80;24287;-84
2021/11/05 03:46:18;;;;;;;;;;;;;;;7.15;63.25;98049.44;1749293;80;20277;-84
2021/11/05 03:48:44;;;;;;;;;;;;;;;7.17;63.25;98057.16;1749241;80;24735;-84
2021/11/05 03:51:14;;;;;;;;;;;;;;;7.16;63.26;98050.28;1731102;83;21985;-87
2021/11/05 03:53:40;;;;;;;;;;;;;;;7.16;63.29;98052.88;1731196;83;26756;-86
2021/11/05 03:56:06;;;;;;;;;;;;;;;7.16;63.31;98060.69;1728220;83;24538;-88
2021/11/05 03:58:33;;;;;;;;;;;;;;;7.15;63.32;98062.45;1749370;82;20293;-85
2021/11/05 04:01:00;;;;;;;;;;;;;;;7.15;63.32;98068.96;1714357;82;24777;-84
2021/11/05 04:03:26;;;;;;;;;;;;;;;7.15;63.34;98067.66;1731952;82;22110;-84
2021/11/05 04:05:52;;;;;;;;;;;;;;;7.16;63.36;98077.60;1749184;80;25955;-85
2021/11/05 04:08:18;;;;;;;;;;;;;;;7.16;63.37;98076.30;1749375;82;20915;-85
2021/11/05 04:10:46;;;;;;;;;;;;;;;7.13;63.37;98078.65;1749421;80;20159;-86
2021/11/05 04:13:12;;;;;;;;;;;;;;;7.14;63.39;98073.81;1717373;82;24646;-86
2021/11/05 04:15:38;;;;;;;;;;;;;;;7.15;63.42;98079.83;1749381;80;21876;-85
2021/11/05 04:18:06;;;;;;;;;;;;;;;7.14;63.41;98079.48;1749262;80;25972;-85
2021/11/05 04:20:34;;;;;;;;;;;;;;;7.12;63.45;98080.87;1749088;82;24608;-86
2021/11/05 04:23:01;;;;;;;;;;;;;;;7.12;63.46;98089.98;1749471;80;20486;-86
2021/11/05 04:25:27;;;;;;;;;;;;;;;7.10;63.46;98083.19;1722008;82;24705;-85
2021/11/05 04:27:53;;;;;;;;;;;;;;;7.08;63.46;98092.87;1723941;81;21982;-85
2021/11/05 04:30:19;;;;;;;;;;;;;;;7.09;63.47;98091.45;1748969;80;27252;-84
2021/11/05 04:32:51;;;;;;;;;;;;;;;7.12;63.52;98099.09;1693503;82;24461;-85
2021/11/05 04:35:17;;;;;;;;;;;;;;;7.11;63.54;98093.97;1735820;81;20264;-86
2021/11/05 04:37:44;;;;;;;;;;;;;;;7.11;63.55;98109.58;1749434;80;24870;-85
2021/11/05 04:40:10;;;;;;;;;;;;;;;7.08;63.56;98100.21;1749507;82;21991;-85
2021/11/05 04:42:36;;;;;;;;;;;;;;;7.08;63.57;98108.48;1749292;80;26070;-86
2021/11/05 04:45:03;;;;;;;;;;;;;;;7.06;63.58;98107.27;1749225;80;24472;-86
2021/11/05 04:47:29;;;;;;;;;;;;;;;7.06;63.58;98102.52;1693298;82;20188;-86
2021/11/05 04:49:55;;;;;;;;;;;;;;;7.03;63.57;98107.46;1735578;82;24996;-86
2021/11/05 04:52:21;;;;;;;;;;;;;;;7.00;63.56;98114.13;1735520;81;22156;-88
2021/11/05 04:54:47;;;;;;;;;;;;;;;6.97;63.59;98118.70;1735464;81;25973;-88
2021/11/05 04:57:13;;;;;;;;;;;;;;;6.95;63.59;98108.84;1736480;81;25324;-86
2021/11/05 04:59:39;;;;;;;;;;;;;;;6.96;63.61;98118.32;1735352;81;20170;-88
2021/11/05 05:02:06;;;;;;;;;;;;;;;6.95;63.61;98104.94;1749332;80;25434;-86
2021/11/05 05:04:32;;;;;;;;;;;;;;;6.95;63.62;98104.94;1749418;82;21910;-87
2021/11/05 05:06:58;;;;;;;;;;;;;;;6.94;63.64;98118.41;1750534;80;26022;-83
2021/11/05 05:09:26;;;;;;;;;;;;;;;6.93;63.66;98114.12;1749473;80;25652;-85
2021/11/05 05:11:52;;;;;;;;;;;;;;;6.92;63.68;98118.14;1749415;80;20322;-87
2021/11/05 05:14:19;;;;;;;;;;;;;;;6.93;63.68;98118.02;1695105;82;24747;-83
2021/11/05 05:16:46;;;;;;;;;;;;;;;6.94;63.70;98123.61;1734802;82;21909;-85
2021/11/05 05:19:12;;;;;;;;;;;;;;;6.96;63.73;98128.27;1749472;80;26640;-87
2021/11/05 05:21:38;;;;;;;;;;;;;;;6.97;63.73;98124.74;1749210;80;24468;-87
2021/11/05 05:24:04;;;;;;;;;;;;;;;6.99;63.75;98126.77;1749186;82;20301;-87
2021/11/05 05:26:30;;;;;;;;;;;;;;;7.01;63.78;98127.52;1748119;80;24827;-86
2021/11/05 05:28:56;;;;;;;;;;;;;;;7.04;63.81;98126.02;1731447;83;21956;-84
2021/11/05 05:31:23;;;;;;;;;;;;;;;7.03;63.83;98128.28;1731382;81;21137;-85
2021/11/05 05:33:49;;;;;;;;;;;;;;;7.02;63.83;98138.77;1749368;80;24427;-84
2021/11/05 05:36:15;;;;;;;;;;;;;;;7.02;63.84;98141.37;1733203;82;20224;-85
2021/11/05 05:38:44;;;;;;;;;;;;;;;7.02;63.87;98140.91;1721222;83;24787;-86
2021/11/05 05:41:11;;;;;;;;;;;;;;;7.01;63.86;98143.13;1734597;81;21992;-85
2021/11/05 05:43:37;;;;;;;;;;;;;;;7.03;63.88;98141.28;1734117;82;26942;-84
2021/11/05 05:46:04;;;;;;;;;;;;;;;7.01;63.89;98142.29;1690698;83;24667;-85
2021/11/05 05:48:30;;;;;;;;;;;;;;;7.00;63.91;98151.02;1736152;81;20280;-85
2021/11/05 05:50:56;;;;;;;;;;;;;;;7.00;63.93;98153.62;1736109;81;24815;-86
2021/11/05 05:53:22;;;;;;;;;;;;;;;6.99;63.95;98155.84;1681270;83;21984;-86
2021/11/05 05:55:48;;;;;;;;;;;;;;;7.00;63.96;98160.97;1723403;82;20968;-86
2021/11/05 05:58:14;;;;;;;;;;;;;;;7.01;64.00;98172.20;1722363;81;24501;-86
2021/11/05 06:00:41;;;;;;;;;;;;;;;7.02;64.04;98178.63;1724886;82;20515;-86
2021/11/05 06:03:07;;;;;;;;;;;;;;;7.04;64.08;98183.26;1725099;82;24874;-86
2021/11/05 06:05:33;;;;;;;;;;;;;;;7.04;64.10;98182.42;1735978;81;21951;-86
2021/11/05 06:07:59;;;;;;;;;;;;;;;6.97;64.11;98165.52;1736212;81;26096;-86
2021/11/05 06:10:25;;;;;;;;;;;;;;;7.09;64.15;98176.51;1736141;81;24427;-86
2021/11/05 06:12:51;;;;;;;;;;;;;;;7.09;64.16;98173.41;1736158;81;20248;-86
2021/11/05 06:15:17;;;;;;;;;;;;;;;7.09;64.18;98175.20;1736170;81;20767;-86
2021/11/05 06:17:44;;;;;;;;;;;;;;;7.06;64.19;98177.52;1736016;81;21990;-87
2021/11/05 06:20:10;;;;;;;;;;;;;;;7.05;64.18;98183.64;1680084;83;25995;-86
2021/11/05 06:22:36;;;;;;;;;;;;;;;7.03;64.17;98186.81;1723406;81;25330;-86
2021/11/05 06:25:03;;;;;;;;;;;;;;;7.04;64.17;98191.52;1743761;81;20180;-88
2021/11/05 06:27:29;;;;;;;;;;;;;;;7.04;64.15;98188.92;1736214;81;24778;-87
2021/11/05 06:29:56;;;;;;;;;;;;;;;7.03;64.18;98186.81;1735844;81;22291;-87
2021/11/05 06:32:22;;;;;;;;;;;;;;;7.02;64.17;98190.34;1736103;82;25915;-87
2021/11/05 06:34:49;;;;;;;;;;;;;;;7.00;64.18;98199.98;1736055;82;25225;-88
2021/11/05 06:37:15;;;;;;;;;;;;;;;7.02;64.18;98209.85;1686570;83;20154;-87
2021/11/05 06:39:41;;;;;;;;;;;;;;;7.04;64.21;98219.69;1723086;82;20256;-88
2021/11/05 06:42:07;;;;;;;;;;;;;;;7.05;64.24;98227.88;1736062;82;21990;-85
2021/11/05 06:44:34;;;;;;;;;;;;;;;7.06;64.30;98233.45;1735824;81;26794;-84
2021/11/05 06:47:00;;;;;;;;;;;;;;;7.06;64.30;98240.42;1733200;81;25341;-82
2021/11/05 06:49:26;;;;;;;;;;;;;;;7.07;64.32;98248.14;1736284;81;20552;-87
2021/11/05 06:51:57;;;;;;;;;;;;;;;7.09;64.34;98257.98;1679060;83;20471;-87
2021/11/05 06:54:22;;;;;;;;;;;;;;;7.09;64.37;98265.78;1724816;83;20621;-87
2021/11/05 06:56:49;;;;;;;;;;;;;;;7.09;64.39;98277.98;1725183;82;26113;-84
2021/11/05 06:59:15;;;;;;;;;;;;;;;7.09;64.39;98273.59;1736227;81;24533;-83
2021/11/05 07:01:41;;;;;;;;;;;;;;;7.08;64.40;98264.13;1736206;81;20268;-83
2021/11/05 07:04:07;;;;;;;;;;;;;;;7.12;64.41;98271.28;1736082;81;24954;-85
2021/11/05 07:06:34;;;;;;;;;;;;;;;7.13;64.44;98281.61;1736363;81;20258;-86
2021/11/05 07:09:01;;;;;;;;;;;;;;;7.13;64.45;98287.28;1718485;81;21141;-84
2021/11/05 07:11:27;;;;;;;;;;;;;;;7.15;64.49;98284.10;1677788;83;20310;-84
2021/11/05 07:13:53;;;;;;;;;;;;;;;7.16;64.52;98279.28;1724531;83;20815;-86
2021/11/05 07:16:21;;;;;;;;;;;;;;;7.21;64.53;98285.52;1725090;82;20224;-88
2021/11/05 07:18:49;;;;;;;;;;;;;;;7.25;64.55;98285.73;1736282;81;21983;-83
2021/11/05 07:21:19;;;;;;;;;;;;;;;7.29;64.57;98288.06;1706548;82;25965;-83
2021/11/05 07:23:47;;;;;;;;;;;;;;;7.34;64.59;98291.22;1722878;83;24397;-86
2021/11/05 07:26:13;;;;;;;;;;;;;;;7.38;64.59;98295.31;1723364;83;20227;-86
2021/11/05 07:28:39;;;;;;;;;;;;;;;7.42;64.61;98300.70;1723480;83;24704;-86
2021/11/05 07:31:05;;;;;;;;;;;;;;;7.46;64.63;98301.37;1723288;81;22025;-87
2021/11/05 07:33:31;;;;;;;;;;;;;;;7.45;64.59;98309.65;1721695;83;21724;-87
2021/11/05 07:35:57;;;;;;;;;;;;;;;7.47;64.56;98309.08;1723442;82;24137;-87
2021/11/05 07:38:29;;;;;;;;;;;;;;;7.51;64.57;98313.66;1723002;81;20206;-87
2021/11/05 07:40:55;;;;;;;;;;;;;;;7.55;64.55;98306.87;1723360;83;24965;-87
2021/11/05 07:43:22;;;;;;;;;;;;;;;7.61;64.57;98308.73;1736166;81;20407;-87
2021/11/05 07:45:48;;;;;;;;;;;;;;;7.65;64.55;98313.66;1679650;83;25990;-87
2021/11/05 07:48:14;;;;;;;;;;;;;;;7.70;64.57;98318.13;1735991;81;20278;-87
2021/11/05 07:50:40;;;;;;;;;;;;;;;7.72;64.55;98330.61;1715630;83;20313;-83
2021/11/05 07:53:06;;;;;;;;;;;;;;;7.78;64.54;98327.64;1718308;82;24738;-84
2021/11/05 07:55:32;;;;;;;;;;;;;;;7.84;64.53;98331.18;1718297;82;22075;-84
2021/11/05 07:57:58;;;;;;;;;;;;;;;7.87;64.50;98338.80;1719070;82;26100;-84
2021/11/05 08:00:24;;;;;;;;;;;;;;;7.93;64.47;98334.52;1736039;81;24426;-84
2021/11/05 08:02:51;;;;;;;;;;;;;;;7.97;64.42;98335.16;1718423;83;20211;-84
2021/11/05 08:05:17;;;;;;;;;;;;;;;8.02;64.39;98333.60;1718169;83;25498;-88
2021/11/05 08:07:45;;;;;;;;;;;;;;;8.03;64.32;98338.70;1736140;81;21920;-84
2021/11/05 08:10:14;;;;;;;;;;;;;;;8.08;64.31;98348.38;1735909;81;26276;-84
2021/11/05 08:12:39;;;;;;;;;;;;;;;8.11;64.23;98357.79;1706562;82;24427;-84
2021/11/05 08:15:05;;;;;;;;;;;;;;;8.14;64.21;98354.98;1736119;81;20266;-84
2021/11/05 08:17:31;;;;;;;;;;;;;;;8.20;64.19;98363.73;1736059;81;24247;-84
2021/11/05 08:19:57;;;;;;;;;;;;;;;8.19;64.08;98367.27;1737907;81;21871;-84
2021/11/05 08:22:23;;;;;;;;;;;;;;;8.19;63.98;98378.99;1688276;83;21022;-85
2021/11/05 08:24:52;;;;;;;;;;;;;;;8.22;63.92;98380.97;1735869;81;20286;-89
2021/11/05 08:27:17;;;;;;;;;;;;;;;8.27;63.91;98384.59;1736088;81;20436;-86
2021/11/05 08:29:43;;;;;;;;;;;;;;;8.32;63.88;98384.72;1735984;81;24797;-87
2021/11/05 08:32:09;;;;;;;;;;;;;;;8.36;63.83;98386.20;1684895;83;20825;-88
2021/11/05 08:34:37;;;;;;;;;;;;;;;8.39;63.77;98384.72;1724894;81;26117;-88
2021/11/05 08:37:03;;;;;;;;;;;;;;;8.41;63.69;98383.30;1698478;83;24585;-85
2021/11/05 08:39:29;;;;;;;;;;;;;;;8.45;63.64;98381.36;1736137;81;20573;-84
2021/11/05 08:41:55;;;;;;;;;;;;;;;8.49;63.56;98382.83;1735836;82;24763;-85
2021/11/05 08:44:21;;;;;;;;;;;;;;;8.51;63.50;98370.05;1683150;83;20219;-84
2021/11/05 08:46:50;;;;;;;;;;;;;;;8.54;63.40;98379.47;1724901;82;21078;-88
2021/11/05 08:49:17;;;;;;;;;;;;;;;8.58;63.33;98372.66;1725005;81;24459;-88
2021/11/05 08:51:44;;;;;;;;;;;;;;;8.58;63.26;98384.86;1735616;81;20276;-84
2021/11/05 08:54:11;;;;;;;;;;;;;;;8.63;63.23;98384.94;1736023;81;24747;-86
2021/11/05 08:56:37;;;;;;;;;;;;;;;8.69;63.22;98388.47;1680432;83;21997;-86
2021/11/05 08:59:03;;;;;;;;;;;;;;;8.73;63.20;98393.02;1734625;81;26043;-86
2021/11/05 09:01:30;;;;;;;;;;;;;;;8.70;63.13;98384.94;1736048;81;24511;-86
2021/11/05 09:03:56;;;;;;;;;;;;;;;8.67;62.99;98381.20;1718239;83;20462;-86
2021/11/05 09:06:22;;;;;;;;;;;;;;;8.65;62.88;98386.16;1718364;83;24801;-85
2021/11/05 09:08:49;;;;;;;;;;;;;;;8.66;62.85;98390.45;1736209;81;20263;-85
2021/11/05 09:11:15;;;;;;;;;;;;;;;8.66;62.81;98383.92;1731599;81;25967;-86
2021/11/05 09:13:41;;;;;;;;;;;;;;;8.65;62.77;98393.98;1735823;81;24405;-86
2021/11/05 09:16:07;;;;;;;;;;;;;;;8.65;62.72;98390.91;1681873;83;20295;-86
2021/11/05 09:18:35;;;;;;;;;;;;;;;8.67;62.64;98391.63;1721911;82;22623;-86
2021/11/05 09:21:03;;;;;;;;;;;;;;;8.68;62.60;98398.53;1734407;81;22721;-86
2021/11/05 09:23:30;;;;;;;;;;;;;;;8.68;62.54;98394.63;1734587;81;25895;-85
2021/11/05 09:26:04;;;;;;;;;;;;;;;8.67;62.49;98398.16;1731360;81;24656;-86
2021/11/05 09:28:30;;;;;;;;;;;;;;;8.70;62.45;98404.50;1735252;82;20248;-85
2021/11/05 09:30:57;;;;;;;;;;;;;;;8.75;62.44;98395.92;1723476;83;24810;-86
2021/11/05 09:33:23;;;;;;;;;;;;;;;8.81;62.42;98399.45;1723497;82;21926;-86
2021/11/05 09:35:49;;;;;;;;;;;;;;;8.86;62.38;98404.84;1723586;83;25923;-86
2021/11/05 09:38:17;;;;;;;;;;;;;;;8.89;62.27;98406.77;1742545;80;25143;-86
2021/11/05 09:40:45;;;;;;;;;;;;;;;8.93;62.19;98416.11;1747402;80;20207;-86
2021/11/05 09:43:11;;;;;;;;;;;;;;;9.03;62.17;98415.89;1749066;80;24779;-86
2021/11/05 09:45:37;;;;;;;;;;;;;;;9.10;62.16;98419.79;1693396;82;21971;-86
2021/11/05 09:48:04;;;;;;;;;;;;;;;9.16;62.11;98423.78;1748056;82;26174;-86
2021/11/05 09:50:31;;;;;;;;;;;;;;;9.22;62.07;98418.14;1730520;82;24895;-86
2021/11/05 09:52:57;;;;;;;;;;;;;;;9.26;61.96;98424.02;1730144;83;20298;-86
2021/11/05 09:55:23;;;;;;;;;;;;;;;9.31;61.89;98410.19;1728532;83;20233;-86
2021/11/05 09:57:49;;;;;;;;;;;;;;;9.34;61.81;98419.96;1731442;83;20226;-85
2021/11/05 10:00:17;;;;;;;;;;;;;;;9.39;61.74;98421.80;1732351;81;21037;-86
2021/11/05 10:02:44;;;;;;;;;;;;;;;9.45;61.68;98427.94;1730865;81;24618;-85
2021/11/05 10:05:11;;;;;;;;;;;;;;;9.53;61.64;98419.14;1731124;81;20465;-86
2021/11/05 10:07:51;;;;;;;;;;;;;;;9.63;61.63;98430.66;1731188;83;24853;-85
2021/11/05 10:10:25;;;;;;;;;;;;;;;9.64;61.58;98419.27;1728768;83;21964;-86
2021/11/05 10:12:54;;;;;;;;;;;;;;;9.68;61.44;98422.51;1729748;83;25977;-86
2021/11/05 10:15:26;;;;;;;;;;;;;;;9.71;61.34;98412.34;1729301;83;23930;-86
2021/11/05 10:17:54;;;;;;;;;;;;;;;9.75;61.25;98421.64;1729182;83;20317;-86
2021/11/05 10:20:20;;;;;;;;;;;;;;;9.77;61.20;98425.80;1729492;83;24826;-86
2021/11/05 10:22:52;;;;;;;;;;;;;;;9.80;61.10;98422.16;1731260;83;22036;-86
2021/11/05 10:25:34;;;;;;;;;;;;;;;9.84;61.00;98431.47;1729433;83;26059;-86
2021/11/05 10:28:02;;;;;;;;;;;;;;;9.87;60.94;98438.63;1728100;83;25297;-85
2021/11/05 10:30:29;;;;;;;;;;;;;;;9.95;60.89;98449.89;1731332;83;20230;-85
2021/11/05 10:33:00;;;;;;;;;;;;;;;10.01;60.87;98443.78;1747190;80;24819;-85
2021/11/05 10:35:26;;;;;;;;;;;;;;;10.03;60.77;98455.45;1749198;82;21984;-85
2021/11/05 10:37:53;;;;;;;;;;;;;;;10.03;60.68;98438.45;1745860;80;26037;-85
2021/11/05 10:40:19;;;;;;;;;;;;;;;9.99;60.53;98455.27;1734190;81;25179;-85
2021/11/05 10:42:46;;;;;;;;;;;;;;;9.98;60.41;98447.08;1733338;81;20338;-85
2021/11/05 10:45:20;;;;;;;;;;;;;;;9.92;60.24;98450.10;1735522;81;24724;-85
2021/11/05 10:47:58;;;;;;;;;;;;;;;9.88;60.07;98455.15;1734596;81;22135;-85
2021/11/05 10:50:28;;;;;;;;;;;;;;;9.91;60.01;98456.27;1714167;82;26747;-85
2021/11/05 10:52:58;;;;;;;;;;;;;;;9.95;59.93;98461.19;1724196;83;25241;-85
2021/11/05 10:55:24;;;;;;;;;;;;;;;9.96;59.84;98458.94;1735405;82;20305;-85
2021/11/05 10:57:51;;;;;;;;;;;;;;;9.98;59.77;98458.84;1735480;82;24746;-85
2021/11/05 11:00:22;;;;;;;;;;;;;;;10.00;59.70;98454.33;1716738;82;21972;-84
2021/11/05 11:02:48;;;;;;;;;;;;;;;10.02;59.62;98459.00;1716963;83;26139;-85
2021/11/05 11:05:34;;;;;;;;;;;;;;;10.04;59.58;98464.95;1717505;83;24563;-86
2021/11/05 11:08:01;;;;;;;;;;;;;;;10.05;59.51;98465.31;1717633;82;20220;-86
2021/11/05 11:10:32;;;;;;;;;;;;;;;10.07;59.45;98451.69;1717258;83;24953;-86
2021/11/05 11:12:58;;;;;;;;;;;;;;;10.09;59.37;98464.20;1717118;82;22690;-86
2021/11/05 11:15:32;;;;;;;;;;;;;;;10.09;59.30;98467.62;1717734;82;26046;-85
2021/11/05 11:17:58;;;;;;;;;;;;;;;10.08;59.21;98465.97;1717446;83;24580;-86
2021/11/05 11:20:28;;;;;;;;;;;;;;;10.05;59.09;98469.23;1716181;82;20464;-85
2021/11/05 11:22:55;;;;;;;;;;;;;;;10.07;59.05;98464.29;1717596;83;24901;-85
2021/11/05 11:25:21;;;;;;;;;;;;;;;10.16;59.04;98466.77;1716933;82;21950;-85
2021/11/05 11:27:53;;;;;;;;;;;;;;;10.14;59.01;98469.11;1716845;83;27030;-85
2021/11/05 11:30:20;;;;;;;;;;;;;;;10.16;58.92;98473.31;1723288;82;24322;-85
2021/11/05 11:32:49;;;;;;;;;;;;;;;10.20;58.92;98478.69;1717446;83;20148;-85
2021/11/05 11:35:15;;;;;;;;;;;;;;;10.21;58.88;98486.91;1715316;83;25495;-85
2021/11/05 11:37:42;;;;;;;;;;;;;;;10.24;58.83;98481.95;1734540;81;22028;-85
2021/11/05 11:40:09;;;;;;;;;;;;;;;10.27;58.82;98481.27;1693132;83;25991;-85
2021/11/05 11:42:36;;;;;;;;;;;;;;;10.26;58.76;98473.05;1694935;83;25110;-85
2021/11/05 11:45:03;;;;;;;;;;;;;;;10.23;58.65;98482.89;1696084;84;20222;-85
2021/11/05 11:47:32;;;;;;;;;;;;;;;10.20;58.55;98481.31;1691017;83;24197;-85
2021/11/05 11:49:58;;;;;;;;;;;;;;;10.14;58.44;98480.41;1691406;83;21513;-85
2021/11/05 11:52:28;;;;;;;;;;;;;;;10.09;58.36;98482.00;1684141;84;20975;-85
2021/11/05 11:54:57;;;;;;;;;;;;;;;10.12;58.36;98480.97;1685072;84;24510;-85
2021/11/05 11:57:25;;;;;;;;;;;;;;;10.11;58.36;98480.59;1685008;84;20255;-85
2021/11/05 11:59:59;;;;;;;;;;;;;;;10.02;58.26;98487.30;1688367;84;24804;-85
2021/11/05 12:02:32;;;;;;;;;;;;;;;9.96;58.20;98486.86;1677444;84;22892;-85
2021/11/05 12:04:59;;;;;;;;;;;;;;;9.96;58.17;98485.55;1690551;83;26921;-85
2021/11/05 12:07:26;;;;;;;;;;;;;;;9.99;58.14;98491.87;1690475;83;24539;-85
2021/11/05 12:09:52;;;;;;;;;;;;;;;9.97;58.13;98490.69;1667951;84;20294;-85
2021/11/05 12:12:23;;;;;;;;;;;;;;;9.98;58.12;98485.80;1690036;83;24915;-85
2021/11/05 12:15:03;;;;;;;;;;;;;;;9.98;58.10;98492.34;1696179;83;22070;-84
2021/11/05 12:17:31;;;;;;;;;;;;;;;10.00;58.11;98493.55;1693634;84;26812;-85
2021/11/05 12:20:03;;;;;;;;;;;;;;;9.98;58.10;98486.30;1692058;83;24489;-84
2021/11/05 12:22:33;;;;;;;;;;;;;;;9.91;58.02;98487.63;1691312;83;20222;-85
2021/11/05 12:25:23;;;;;;;;;;;;;;;9.80;57.93;98497.49;1687826;83;25005;-85
2021/11/05 12:28:05;;;;;;;;;;;;;;;9.71;57.88;98493.34;1689304;83;22004;-85
2021/11/05 12:30:31;;;;;;;;;;;;;;;9.71;57.89;98488.12;1690628;83;25986;-86
2021/11/05 12:32:59;;;;;;;;;;;;;;;9.64;57.89;98496.36;1694447;83;25370;-86
2021/11/05 12:35:25;;;;;;;;;;;;;;;9.68;57.87;98500.90;1687453;83;20637;-86
2021/11/05 12:37:53;;;;;;;;;;;;;;;9.76;57.95;98503.03;1691122;83;24896;-87
2021/11/05 12:40:45;;;;;;;;;;;;;;;9.74;57.93;98499.20;1735815;81;22791;-87
2021/11/05 12:43:12;;;;;;;;;;;;;;;9.73;57.92;98495.37;1737038;81;26008;-89
2021/11/05 12:45:58;;;;;;;;;;;;;;;9.80;57.93;98504.49;1736858;81;24506;-87
2021/11/05 12:48:35;;;;;;;;;;;;;;;9.84;57.95;98502.88;1737211;81;20175;-87
2021/11/05 12:51:01;;;;;;;;;;;;;;;9.89;57.95;98504.72;1729339;81;25349;-86
2021/11/05 12:53:27;;;;;;;;;;;;;;;9.84;57.95;98505.49;1747449;80;20229;-86
2021/11/05 12:55:53;;;;;;;;;;;;;;;9.71;57.86;98503.80;1692598;82;26121;-86
2021/11/05 12:58:20;;;;;;;;;;;;;;;9.75;57.83;98509.19;1748495;80;24475;-86